SAZB/BHI METAR and TAF weather

Enter ICAO airport designator
Station Type Date Time Source
SAZB METAR 2022/09/28 11:39 UTC NOAA

SAZB 281139Z 29010KT CAVOK 09/04 Q1032


Station Type Date Time Source
SAZB Decoded METAR 2022/09/28 11:39 UTC NOAA

Bahia Blanca Aerodrome, Argentina (SAZB) 38-44S 062-10W 83M
Sep 28, 2022 - 07:39 AM EDT / 2022.09.28 1139 UTC
Wind: from the WNW (290 degrees) at 12 MPH (10 KT):0
Visibility: greater than 7 mile(s):0
Temperature: 48 F (9 C)
Dew Point: 39 F (4 C)
Relative Humidity: 70%
Pressure (altimeter): 30.47 in. Hg (1032 hPa)
ob: SAZB 281139Z 29010KT CAVOK 09/04 Q1032
cycle: 11

Station Type Date Time Source
SAZB TAF 2022/09/17 18:06 UTC NOAA

TAF SAZB 171700Z 1718/1818 33010G20KT CAVOK TX23/1718Z TN10/1810Z
BECMG 1719/1722 VRB05KT
BECMG 1800/1803 18010G20KT PROB40 1804/1810 8000 OVC008
BECMG 1812/1815 5000 TSRA BKN010 FEW040CB OVC050

Example: see airport list